PWSweather.com
Personal Weather Stations
Station Observations
KWIATHEL1
Marinette County, Athelstane, WI 54104

Marinette CountyAthelstane, WI 54104

Lat: 45.4, Lon: -88.12

Elevation: 960

Station Type: Acurite 5in1 Pro

http://weather.athelstanewi.com

Latest ConditionsUpdated 3:20:01 AM CST Thursday, Feb 23, 2017
Currently Today's Max Today's Min Today's Average
Temperature 35.4°F1.9°C 38.7°F3.7°C 35.4°F1.9°C 37.5°F3.1°C
Dew Point 33.6°F0.9°C 38.1°F3.4°C 33.4°F0.8°C 36.2°F2.3°C
Winds 2.3 mph ESE3.7 kmh ESE 3.5 mph E5.6 kmh E - 1.4 mph 2.3 kmh
Wind Gusts 3.5 mph5.6 kmh 8.1 mph13.0 kmh - -
Humidity 93% 98% 91% 95%
Pressure 29.67 in1004.7 mb 29.67 in1004.7 mb 29.54 in1000.3 mb -
Hour Temp Dew Point Humidity Winds Wind Gusts Pressure Precip Precip Rate Daily Precip Total
03:20 AM 35.4°F1.9°C 33.6°F0.9°C 93% 2.3 mph ESE3.7 kmh ESE 3.5 mph5.6 kmh 29.67 in1004.7 mb - 0.00 in0.0 mm 0.00 in0.0 mm
03:15 AM 35.8°F2.1°C 33.4°F0.8°C 91% 1.2 mph SW1.9 kmh SW 3.5 mph5.6 kmh 29.66 in1004.4 mb - 0.00 in0.0 mm 0.00 in0.0 mm
03:10 AM 35.8°F2.1°C 33.4°F0.8°C 91% 1.2 mph ESE1.9 kmh ESE 2.3 mph3.7 kmh 29.67 in1004.7 mb - 0.00 in0.0 mm 0.00 in0.0 mm
03:00 AM 36.1°F2.3°C 33.8°F1.0°C 91% 1.2 mph NE1.9 kmh NE 3.5 mph5.6 kmh 29.65 in1004.1 mb - 0.00 in0.0 mm 0.00 in0.0 mm
02:55 AM 36.1°F2.3°C 33.8°F1.0°C 91% 1.2 mph NNE1.9 kmh NNE 3.5 mph5.6 kmh 29.64 in1003.7 mb - 0.00 in0.0 mm 0.00 in0.0 mm
02:50 AM 36.1°F2.3°C 33.8°F1.0°C 91% 1.2 mph ESE1.9 kmh ESE 3.5 mph5.6 kmh 29.64 in1003.7 mb - 0.00 in0.0 mm 0.00 in0.0 mm
02:45 AM 36.1°F2.3°C 33.8°F1.0°C 91% 2.3 mph NE3.7 kmh NE 2.3 mph3.7 kmh 29.63 in1003.4 mb - 0.00 in0.0 mm 0.00 in0.0 mm
02:40 AM 36.5°F2.5°C 34.1°F1.2°C 91% 1.2 mph ENE1.9 kmh ENE 2.3 mph3.7 kmh 29.63 in1003.4 mb - 0.00 in0.0 mm 0.00 in0.0 mm
02:35 AM 36.5°F2.5°C 34.7°F1.5°C 93% 2.3 mph NE3.7 kmh NE 4.6 mph7.4 kmh 29.62 in1003.0 mb - 0.00 in0.0 mm 0.00 in0.0 mm
02:30 AM 36.6°F2.6°C 34.7°F1.5°C 93% 2.3 mph ENE3.7 kmh ENE 4.6 mph7.4 kmh 29.62 in1003.0 mb - 0.00 in0.0 mm 0.00 in0.0 mm
02:25 AM 36.7°F2.6°C 34.8°F1.6°C 93% 2.3 mph ENE3.7 kmh ENE 3.5 mph5.6 kmh 29.62 in1003.0 mb - 0.00 in0.0 mm 0.00 in0.0 mm
02:20 AM 36.9°F2.7°C 35.0°F1.7°C 93% 2.3 mph ENE3.7 kmh ENE 2.3 mph3.7 kmh 29.62 in1003.0 mb - 0.00 in0.0 mm 0.00 in0.0 mm
02:15 AM 37.0°F2.8°C 35.2°F1.8°C 93% 1.2 mph ENE1.9 kmh ENE 2.3 mph3.7 kmh 29.61 in1002.7 mb - 0.00 in0.0 mm 0.00 in0.0 mm
02:10 AM 37.0°F2.8°C 35.2°F1.8°C 93% 2.3 mph ENE3.7 kmh ENE 3.5 mph5.6 kmh 29.61 in1002.7 mb - 0.00 in0.0 mm 0.00 in0.0 mm
02:00 AM 37.2°F2.9°C 35.4°F1.9°C 93% 2.3 mph ENE3.7 kmh ENE 3.5 mph5.6 kmh 29.61 in1002.7 mb - 0.00 in0.0 mm 0.00 in0.0 mm
01:55 AM 37.2°F2.9°C 35.4°F1.9°C 93% 2.3 mph ENE3.7 kmh ENE 3.5 mph5.6 kmh 29.60 in1002.4 mb - 0.00 in0.0 mm 0.00 in0.0 mm
01:50 AM 37.2°F2.9°C 35.4°F1.9°C 93% 3.5 mph ENE5.6 kmh ENE 3.5 mph5.6 kmh 29.61 in1002.7 mb - 0.00 in0.0 mm 0.00 in0.0 mm
01:45 AM 37.2°F2.9°C 35.9°F2.2°C 95% 2.3 mph NE3.7 kmh NE 4.6 mph7.4 kmh 29.61 in1002.7 mb - 0.00 in0.0 mm 0.00 in0.0 mm
01:40 AM 37.2°F2.9°C 35.9°F2.2°C 95% 2.3 mph NE3.7 kmh NE 8.1 mph13.0 kmh 29.61 in1002.7 mb - 0.00 in0.0 mm 0.00 in0.0 mm
01:35 AM 37.4°F3.0°C 36.1°F2.3°C 95% 3.5 mph ENE5.6 kmh ENE 4.6 mph7.4 kmh 29.60 in1002.4 mb - 0.00 in0.0 mm 0.00 in0.0 mm
01:30 AM 37.8°F3.2°C 36.7°F2.6°C 96% 2.3 mph ENE3.7 kmh ENE 3.5 mph5.6 kmh 29.60 in1002.4 mb - 0.00 in0.0 mm 0.00 in0.0 mm
01:25 AM 37.8°F3.2°C 36.7°F2.6°C 96% 3.5 mph NW5.6 kmh NW 4.6 mph7.4 kmh 29.61 in1002.7 mb - 0.00 in0.0 mm 0.00 in0.0 mm
01:20 AM 38.1°F3.4°C 37.6°F3.1°C 98% 3.5 mph E5.6 kmh E 3.5 mph5.6 kmh 29.60 in1002.4 mb - 0.00 in0.0 mm 0.00 in0.0 mm
01:15 AM 38.5°F3.6°C 38.0°F3.3°C 98% 1.2 mph E1.9 kmh E 4.6 mph7.4 kmh 29.58 in1001.7 mb - 0.00 in0.0 mm 0.00 in0.0 mm
01:10 AM 38.7°F3.7°C 38.1°F3.4°C 98% 1.2 mph E1.9 kmh E 3.5 mph5.6 kmh 29.58 in1001.7 mb - 0.00 in0.0 mm 0.00 in0.0 mm
01:00 AM 38.7°F3.7°C 38.1°F3.4°C 98% 1.2 mph E1.9 kmh E 3.5 mph5.6 kmh 29.57 in1001.4 mb - 0.00 in0.0 mm 0.00 in0.0 mm
12:55 AM 38.7°F3.7°C 38.1°F3.4°C 98% Calm Calm -- 29.57 in1001.4 mb - 0.00 in0.0 mm 0.00 in0.0 mm
12:50 AM 38.7°F3.7°C 38.1°F3.4°C 98% Calm Calm -- 29.56 in1001.0 mb - 0.00 in0.0 mm 0.00 in0.0 mm
12:45 AM 38.7°F3.7°C 38.1°F3.4°C 98% Calm Calm -- 29.55 in1000.7 mb - 0.00 in0.0 mm 0.00 in0.0 mm
12:40 AM 38.7°F3.7°C 38.1°F3.4°C 98% Calm Calm -- 29.57 in1001.4 mb - 0.00 in0.0 mm 0.00 in0.0 mm
12:35 AM 38.7°F3.7°C 38.1°F3.4°C 98% Calm Calm -- 29.55 in1000.7 mb - 0.00 in0.0 mm 0.00 in0.0 mm
12:30 AM 38.7°F3.7°C 38.1°F3.4°C 98% Calm Calm -- 29.55 in1000.7 mb - 0.00 in0.0 mm 0.00 in0.0 mm
12:25 AM 38.7°F3.7°C 38.1°F3.4°C 98% Calm Calm -- 29.55 in1000.7 mb - 0.00 in0.0 mm 0.00 in0.0 mm
12:20 AM 38.7°F3.7°C 38.1°F3.4°C 98% Calm Calm -- 29.55 in1000.7 mb - 0.00 in0.0 mm 0.00 in0.0 mm
12:15 AM 38.7°F3.7°C 38.1°F3.4°C 98% Calm Calm -- 29.54 in1000.3 mb - 0.00 in0.0 mm 0.00 in0.0 mm
12:10 AM 38.7°F3.7°C 38.1°F3.4°C 98% Calm Calm -- 29.55 in1000.7 mb - 0.00 in0.0 mm 0.00 in0.0 mm
12:00 AM 38.7°F3.7°C 38.1°F3.4°C 98% Calm Calm -- 29.55 in1000.7 mb - 0.00 in0.0 mm 0.00 in0.0 mm